sensor_id;sensor_type;location;lat;lon;timestamp;P1;durP1;ratioP1;P2;durP2;ratioP2
61675;SDS011;47574;52.090;5.244;2024-02-15T00:02:03;18.61;;;10.3;;
61675;SDS011;47574;52.090;5.244;2024-02-15T00:03:39;17.41;;;10.0;;
61675;SDS011;47574;52.090;5.244;2024-02-15T00:05:15;21.0;;;10.3;;
61675;SDS011;47574;52.090;5.244;2024-02-15T00:08:28;16.3;;;9.5;;
61675;SDS011;47574;52.090;5.244;2024-02-15T00:10:05;15.0;;;9.5;;
61675;SDS011;47574;52.090;5.244;2024-02-15T00:11:42;16.4;;;9.6;;
61675;SDS011;47574;52.090;5.244;2024-02-15T00:14:54;16.7;;;9.6;;
61675;SDS011;47574;52.090;5.244;2024-02-15T00:16:30;13.9;;;8.4;;
61675;SDS011;47574;52.090;5.244;2024-02-15T00:18:06;15.2;;;8.6;;
61675;SDS011;47574;52.090;5.244;2024-02-15T00:19:42;15.2;;;9.5;;
61675;SDS011;47574;52.090;5.244;2024-02-15T00:22:55;13.0;;;8.81;;
61675;SDS011;47574;52.090;5.244;2024-02-15T00:24:31;13.8;;;9.21;;
61675;SDS011;47574;52.090;5.244;2024-02-15T00:26:07;15.7;;;8.4;;
61675;SDS011;47574;52.090;5.244;2024-02-15T00:29:22;15.7;;;8.4;;
61675;SDS011;47574;52.090;5.244;2024-02-15T00:30:58;13.5;;;8.0;;
61675;SDS011;47574;52.090;5.244;2024-02-15T00:32:34;15.9;;;8.9;;
61675;SDS011;47574;52.090;5.244;2024-02-15T00:35:47;13.4;;;8.2;;
61675;SDS011;47574;52.090;5.244;2024-02-15T00:37:23;13.4;;;8.71;;
61675;SDS011;47574;52.090;5.244;2024-02-15T00:38:59;17.2;;;9.21;;
61675;SDS011;47574;52.090;5.244;2024-02-15T00:40:35;12.7;;;8.4;;
61675;SDS011;47574;52.090;5.244;2024-02-15T00:43:47;17.7;;;8.31;;
61675;SDS011;47574;52.090;5.244;2024-02-15T00:45:23;18.3;;;8.71;;
61675;SDS011;47574;52.090;5.244;2024-02-15T00:46:59;13.5;;;7.6;;
61675;SDS011;47574;52.090;5.244;2024-02-15T00:50:12;12.0;;;7.5;;
61675;SDS011;47574;52.090;5.244;2024-02-15T00:51:48;16.2;;;8.2;;
61675;SDS011;47574;52.090;5.244;2024-02-15T00:53:24;16.11;;;8.2;;
61675;SDS011;47574;52.090;5.244;2024-02-15T00:56:40;13.5;;;7.3;;
61675;SDS011;47574;52.090;5.244;2024-02-15T00:58:16;12.5;;;7.4;;
61675;SDS011;47574;52.090;5.244;2024-02-15T00:59:52;11.3;;;6.9;;
61675;SDS011;47574;52.090;5.244;2024-02-15T01:01:28;10.8;;;7.0;;
61675;SDS011;47574;52.090;5.244;2024-02-15T01:04:41;13.7;;;6.8;;
61675;SDS011;47574;52.090;5.244;2024-02-15T01:06:17;12.1;;;7.0;;
61675;SDS011;47574;52.090;5.244;2024-02-15T01:07:53;11.4;;;6.7;;
61675;SDS011;47574;52.090;5.244;2024-02-15T01:11:05;10.4;;;6.2;;
61675;SDS011;47574;52.090;5.244;2024-02-15T01:12:41;16.4;;;7.3;;
61675;SDS011;47574;52.090;5.244;2024-02-15T01:14:17;9.31;;;6.5;;
61675;SDS011;47574;52.090;5.244;2024-02-15T01:17:30;11.1;;;6.2;;
61675;SDS011;47574;52.090;5.244;2024-02-15T01:19:06;9.0;;;6.3;;
61675;SDS011;47574;52.090;5.244;2024-02-15T01:20:42;12.3;;;5.6;;
61675;SDS011;47574;52.090;5.244;2024-02-15T01:23:54;10.8;;;6.6;;
61675;SDS011;47574;52.090;5.244;2024-02-15T01:25:30;12.4;;;6.6;;
61675;SDS011;47574;52.090;5.244;2024-02-15T01:27:06;9.31;;;6.8;;
61675;SDS011;47574;52.090;5.244;2024-02-15T01:28:43;11.9;;;7.7;;
61675;SDS011;47574;52.090;5.244;2024-02-15T01:31:55;14.4;;;9.6;;
61675;SDS011;47574;52.090;5.244;2024-02-15T01:33:31;16.4;;;9.9;;
61675;SDS011;47574;52.090;5.244;2024-02-15T01:35:07;15.5;;;11.6;;
61675;SDS011;47574;52.090;5.244;2024-02-15T01:38:23;18.0;;;11.7;;
61675;SDS011;47574;52.090;5.244;2024-02-15T01:40:05;15.2;;;10.8;;
61675;SDS011;47574;52.090;5.244;2024-02-15T01:41:46;19.7;;;12.7;;
61675;SDS011;47574;52.090;5.244;2024-02-15T01:43:22;18.61;;;13.5;;
61675;SDS011;47574;52.090;5.244;2024-02-15T01:46:35;19.8;;;13.5;;
61675;SDS011;47574;52.090;5.244;2024-02-15T01:48:11;22.1;;;14.0;;
61675;SDS011;47574;52.090;5.244;2024-02-15T01:49:47;19.41;;;13.9;;
61675;SDS011;47574;52.090;5.244;2024-02-15T01:53:02;20.9;;;14.9;;
61675;SDS011;47574;52.090;5.244;2024-02-15T01:54:42;22.2;;;15.5;;
61675;SDS011;47574;52.090;5.244;2024-02-15T01:56:18;22.3;;;16.11;;
61675;SDS011;47574;52.090;5.244;2024-02-15T01:59:32;24.0;;;16.0;;
61675;SDS011;47574;52.090;5.244;2024-02-15T02:01:08;20.9;;;15.0;;
61675;SDS011;47574;52.090;5.244;2024-02-15T02:02:45;23.1;;;16.3;;
61675;SDS011;47574;52.090;5.244;2024-02-15T02:04:21;25.3;;;16.3;;
61675;SDS011;47574;52.090;5.244;2024-02-15T02:07:34;25.1;;;16.7;;
61675;SDS011;47574;52.090;5.244;2024-02-15T02:09:11;22.8;;;16.3;;
61675;SDS011;47574;52.090;5.244;2024-02-15T02:10:48;26.8;;;17.0;;
61675;SDS011;47574;52.090;5.244;2024-02-15T02:14:02;22.5;;;16.4;;
61675;SDS011;47574;52.090;5.244;2024-02-15T02:15:38;22.0;;;15.4;;
61675;SDS011;47574;52.090;5.244;2024-02-15T02:17:14;19.2;;;13.9;;
61675;SDS011;47574;52.090;5.244;2024-02-15T02:20:26;19.11;;;14.5;;
61675;SDS011;47574;52.090;5.244;2024-02-15T02:22:02;19.41;;;14.5;;
61675;SDS011;47574;52.090;5.244;2024-02-15T02:23:39;17.3;;;12.9;;
61675;SDS011;47574;52.090;5.244;2024-02-15T02:25:15;24.7;;;15.7;;
61675;SDS011;47574;52.090;5.244;2024-02-15T02:28:28;17.7;;;12.7;;
61675;SDS011;47574;52.090;5.244;2024-02-15T02:30:05;17.2;;;11.7;;
61675;SDS011;47574;52.090;5.244;2024-02-15T02:31:47;18.2;;;12.2;;
61675;SDS011;47574;52.090;5.244;2024-02-15T02:34:59;16.8;;;11.5;;
61675;SDS011;47574;52.090;5.244;2024-02-15T02:36:36;18.7;;;11.5;;
61675;SDS011;47574;52.090;5.244;2024-02-15T02:38:12;17.61;;;11.8;;
61675;SDS011;47574;52.090;5.244;2024-02-15T02:39:49;20.7;;;12.7;;
61675;SDS011;47574;52.090;5.244;2024-02-15T02:43:01;17.0;;;10.8;;
61675;SDS011;47574;52.090;5.244;2024-02-15T02:44:37;16.2;;;11.5;;
61675;SDS011;47574;52.090;5.244;2024-02-15T02:46:13;17.0;;;11.7;;
61675;SDS011;47574;52.090;5.244;2024-02-15T02:49:25;19.91;;;11.6;;
61675;SDS011;47574;52.090;5.244;2024-02-15T02:51:02;18.7;;;11.2;;
61675;SDS011;47574;52.090;5.244;2024-02-15T02:52:39;18.0;;;10.6;;
61675;SDS011;47574;52.090;5.244;2024-02-15T02:55:51;15.6;;;10.5;;
61675;SDS011;47574;52.090;5.244;2024-02-15T02:57:27;16.8;;;10.8;;
61675;SDS011;47574;52.090;5.244;2024-02-15T02:59:06;19.3;;;11.1;;
61675;SDS011;47574;52.090;5.244;2024-02-15T03:02:18;19.5;;;10.4;;
61675;SDS011;47574;52.090;5.244;2024-02-15T03:03:55;16.0;;;10.0;;
61675;SDS011;47574;52.090;5.244;2024-02-15T03:05:32;16.0;;;9.5;;
61675;SDS011;47574;52.090;5.244;2024-02-15T03:07:08;19.0;;;10.3;;
61675;SDS011;47574;52.090;5.244;2024-02-15T03:10:20;20.2;;;10.0;;
61675;SDS011;47574;52.090;5.244;2024-02-15T03:11:56;15.9;;;8.5;;
61675;SDS011;47574;52.090;5.244;2024-02-15T03:13:32;18.7;;;10.0;;
61675;SDS011;47574;52.090;5.244;2024-02-15T03:16:44;17.41;;;8.9;;
61675;SDS011;47574;52.090;5.244;2024-02-15T03:18:21;19.3;;;9.4;;
61675;SDS011;47574;52.090;5.244;2024-02-15T03:19:57;19.91;;;9.6;;
61675;SDS011;47574;52.090;5.244;2024-02-15T03:23:09;15.9;;;9.21;;
61675;SDS011;47574;52.090;5.244;2024-02-15T03:24:45;17.5;;;9.1;;
61675;SDS011;47574;52.090;5.244;2024-02-15T03:26:28;17.2;;;9.0;;
61675;SDS011;47574;52.090;5.244;2024-02-15T03:28:05;14.9;;;8.31;;
61675;SDS011;47574;52.090;5.244;2024-02-15T03:31:17;15.9;;;9.0;;
61675;SDS011;47574;52.090;5.244;2024-02-15T03:32:57;14.6;;;8.6;;
61675;SDS011;47574;52.090;5.244;2024-02-15T03:34:34;20.8;;;8.81;;
61675;SDS011;47574;52.090;5.244;2024-02-15T03:37:46;15.7;;;8.31;;
61675;SDS011;47574;52.090;5.244;2024-02-15T03:39:22;12.9;;;8.1;;
61675;SDS011;47574;52.090;5.244;2024-02-15T03:40:58;14.6;;;8.5;;
61675;SDS011;47574;52.090;5.244;2024-02-15T03:42:34;12.8;;;7.9;;
61675;SDS011;47574;52.090;5.244;2024-02-15T03:45:47;19.5;;;9.0;;
61675;SDS011;47574;52.090;5.244;2024-02-15T03:47:24;16.3;;;9.0;;
61675;SDS011;47574;52.090;5.244;2024-02-15T03:49:00;18.5;;;8.6;;
61675;SDS011;47574;52.090;5.244;2024-02-15T03:52:12;16.11;;;8.4;;
61675;SDS011;47574;52.090;5.244;2024-02-15T03:53:48;17.11;;;9.1;;
61675;SDS011;47574;52.090;5.244;2024-02-15T03:55:24;15.2;;;8.5;;
61675;SDS011;47574;52.090;5.244;2024-02-15T03:58:37;18.61;;;8.81;;
61675;SDS011;47574;52.090;5.244;2024-02-15T04:00:14;16.5;;;8.4;;
61675;SDS011;47574;52.090;5.244;2024-02-15T04:01:50;17.11;;;8.2;;
61675;SDS011;47574;52.090;5.244;2024-02-15T04:05:03;15.7;;;9.21;;
61675;SDS011;47574;52.090;5.244;2024-02-15T04:06:39;18.8;;;8.9;;
61675;SDS011;47574;52.090;5.244;2024-02-15T04:08:15;19.7;;;9.81;;
61675;SDS011;47574;52.090;5.244;2024-02-15T04:09:51;25.0;;;10.3;;
61675;SDS011;47574;52.090;5.244;2024-02-15T04:13:03;17.5;;;8.4;;
61675;SDS011;47574;52.090;5.244;2024-02-15T04:14:39;22.6;;;9.4;;
61675;SDS011;47574;52.090;5.244;2024-02-15T04:16:15;16.4;;;8.4;;
61675;SDS011;47574;52.090;5.244;2024-02-15T04:19:28;19.5;;;9.1;;
61675;SDS011;47574;52.090;5.244;2024-02-15T04:21:04;16.9;;;8.9;;
61675;SDS011;47574;52.090;5.244;2024-02-15T04:22:40;16.7;;;8.81;;
61675;SDS011;47574;52.090;5.244;2024-02-15T04:25:52;15.0;;;9.0;;
61675;SDS011;47574;52.090;5.244;2024-02-15T04:27:28;20.3;;;9.0;;
61675;SDS011;47574;52.090;5.244;2024-02-15T04:29:04;15.3;;;8.9;;
61675;SDS011;47574;52.090;5.244;2024-02-15T04:32:17;19.2;;;8.5;;
61675;SDS011;47574;52.090;5.244;2024-02-15T04:33:53;16.8;;;9.5;;
61675;SDS011;47574;52.090;5.244;2024-02-15T04:35:29;20.41;;;9.0;;
61675;SDS011;47574;52.090;5.244;2024-02-15T04:37:05;22.4;;;8.6;;
61675;SDS011;47574;52.090;5.244;2024-02-15T04:40:17;17.91;;;9.31;;
61675;SDS011;47574;52.090;5.244;2024-02-15T04:41:53;20.7;;;9.6;;
61675;SDS011;47574;52.090;5.244;2024-02-15T04:43:29;16.4;;;8.4;;
61675;SDS011;47574;52.090;5.244;2024-02-15T04:46:43;19.61;;;9.31;;
61675;SDS011;47574;52.090;5.244;2024-02-15T04:48:19;18.0;;;8.81;;
61675;SDS011;47574;52.090;5.244;2024-02-15T04:49:55;15.8;;;8.5;;
61675;SDS011;47574;52.090;5.244;2024-02-15T04:53:07;19.41;;;9.1;;
61675;SDS011;47574;52.090;5.244;2024-02-15T04:54:43;20.0;;;9.6;;
61675;SDS011;47574;52.090;5.244;2024-02-15T04:56:23;22.0;;;8.9;;
61675;SDS011;47574;52.090;5.244;2024-02-15T04:57:59;16.7;;;8.31;;
61675;SDS011;47574;52.090;5.244;2024-02-15T05:01:12;19.3;;;9.71;;
61675;SDS011;47574;52.090;5.244;2024-02-15T05:02:49;19.91;;;9.9;;
61675;SDS011;47574;52.090;5.244;2024-02-15T05:04:25;16.61;;;8.9;;
61675;SDS011;47574;52.090;5.244;2024-02-15T05:07:37;18.91;;;8.9;;
61675;SDS011;47574;52.090;5.244;2024-02-15T05:09:13;24.0;;;10.0;;
61675;SDS011;47574;52.090;5.244;2024-02-15T05:10:49;16.7;;;9.1;;
61675;SDS011;47574;52.090;5.244;2024-02-15T05:14:02;21.5;;;10.1;;
61675;SDS011;47574;52.090;5.244;2024-02-15T05:15:38;25.7;;;11.2;;
61675;SDS011;47574;52.090;5.244;2024-02-15T05:17:14;19.5;;;10.6;;
61675;SDS011;47574;52.090;5.244;2024-02-15T05:18:50;22.8;;;11.1;;
61675;SDS011;47574;52.090;5.244;2024-02-15T05:22:02;17.0;;;9.21;;
61675;SDS011;47574;52.090;5.244;2024-02-15T05:23:38;16.9;;;9.6;;
61675;SDS011;47574;52.090;5.244;2024-02-15T05:25:14;26.5;;;13.0;;
61675;SDS011;47574;52.090;5.244;2024-02-15T05:28:27;18.11;;;10.1;;
61675;SDS011;47574;52.090;5.244;2024-02-15T05:30:03;24.2;;;11.7;;
61675;SDS011;47574;52.090;5.244;2024-02-15T05:31:40;18.7;;;12.1;;
61675;SDS011;47574;52.090;5.244;2024-02-15T05:34:53;21.5;;;11.9;;
61675;SDS011;47574;52.090;5.244;2024-02-15T05:36:29;18.0;;;10.8;;
61675;SDS011;47574;52.090;5.244;2024-02-15T05:38:05;19.8;;;11.7;;
61675;SDS011;47574;52.090;5.244;2024-02-15T05:41:21;20.2;;;11.4;;
61675;SDS011;47574;52.090;5.244;2024-02-15T05:42:57;20.7;;;11.5;;
61675;SDS011;47574;52.090;5.244;2024-02-15T05:44:33;16.4;;;10.6;;
61675;SDS011;47574;52.090;5.244;2024-02-15T05:46:09;18.11;;;10.8;;
61675;SDS011;47574;52.090;5.244;2024-02-15T05:49:22;16.0;;;10.8;;
61675;SDS011;47574;52.090;5.244;2024-02-15T05:50:58;19.91;;;10.7;;
61675;SDS011;47574;52.090;5.244;2024-02-15T05:52:37;19.2;;;9.81;;
61675;SDS011;47574;52.090;5.244;2024-02-15T05:55:50;18.41;;;9.9;;
61675;SDS011;47574;52.090;5.244;2024-02-15T05:57:26;17.61;;;9.9;;
61675;SDS011;47574;52.090;5.244;2024-02-15T05:59:02;22.4;;;11.6;;
61675;SDS011;47574;52.090;5.244;2024-02-15T06:02:14;12.7;;;9.6;;
61675;SDS011;47574;52.090;5.244;2024-02-15T06:03:50;17.11;;;10.8;;
61675;SDS011;47574;52.090;5.244;2024-02-15T06:05:26;19.0;;;10.1;;
61675;SDS011;47574;52.090;5.244;2024-02-15T06:07:03;15.6;;;9.71;;
61675;SDS011;47574;52.090;5.244;2024-02-15T06:10:15;14.6;;;9.1;;
61675;SDS011;47574;52.090;5.244;2024-02-15T06:11:51;14.3;;;9.31;;
61675;SDS011;47574;52.090;5.244;2024-02-15T06:13:27;16.2;;;10.0;;
61675;SDS011;47574;52.090;5.244;2024-02-15T06:16:43;15.2;;;9.31;;
61675;SDS011;47574;52.090;5.244;2024-02-15T06:18:19;16.2;;;9.5;;
61675;SDS011;47574;52.090;5.244;2024-02-15T06:19:56;16.7;;;9.31;;
61675;SDS011;47574;52.090;5.244;2024-02-15T06:23:08;14.4;;;8.5;;
61675;SDS011;47574;52.090;5.244;2024-02-15T06:24:45;18.2;;;10.21;;
61675;SDS011;47574;52.090;5.244;2024-02-15T06:26:21;13.0;;;9.0;;
61675;SDS011;47574;52.090;5.244;2024-02-15T06:27:57;12.8;;;8.9;;
61675;SDS011;47574;52.090;5.244;2024-02-15T06:31:09;17.11;;;10.1;;
61675;SDS011;47574;52.090;5.244;2024-02-15T06:32:46;14.8;;;8.9;;
61675;SDS011;47574;52.090;5.244;2024-02-15T06:34:22;15.1;;;9.6;;
61675;SDS011;47574;52.090;5.244;2024-02-15T06:37:35;14.8;;;10.0;;
61675;SDS011;47574;52.090;5.244;2024-02-15T06:39:12;16.8;;;10.4;;
61675;SDS011;47574;52.090;5.244;2024-02-15T06:40:48;16.8;;;10.4;;
61675;SDS011;47574;52.090;5.244;2024-02-15T06:44:00;14.3;;;10.4;;
61675;SDS011;47574;52.090;5.244;2024-02-15T06:45:36;18.8;;;14.2;;
61675;SDS011;47574;52.090;5.244;2024-02-15T06:47:12;17.3;;;14.1;;
61675;SDS011;47574;52.090;5.244;2024-02-15T06:48:49;15.3;;;11.6;;
61675;SDS011;47574;52.090;5.244;2024-02-15T06:52:01;15.3;;;11.2;;
61675;SDS011;47574;52.090;5.244;2024-02-15T06:53:38;16.5;;;10.7;;
61675;SDS011;47574;52.090;5.244;2024-02-15T06:55:14;15.8;;;9.9;;
61675;SDS011;47574;52.090;5.244;2024-02-15T06:58:27;11.1;;;9.5;;
61675;SDS011;47574;52.090;5.244;2024-02-15T07:00:03;15.1;;;10.1;;
61675;SDS011;47574;52.090;5.244;2024-02-15T07:01:40;16.2;;;10.9;;
61675;SDS011;47574;52.090;5.244;2024-02-15T07:04:52;13.1;;;10.0;;
61675;SDS011;47574;52.090;5.244;2024-02-15T07:06:28;14.1;;;9.9;;
61675;SDS011;47574;52.090;5.244;2024-02-15T07:08:05;11.4;;;9.21;;
61675;SDS011;47574;52.090;5.244;2024-02-15T07:09:41;10.1;;;7.7;;
61675;SDS011;47574;52.090;5.244;2024-02-15T07:12:54;11.9;;;9.31;;
61675;SDS011;47574;52.090;5.244;2024-02-15T07:14:30;12.6;;;9.1;;
61675;SDS011;47574;52.090;5.244;2024-02-15T07:16:07;14.1;;;9.1;;
61675;SDS011;47574;52.090;5.244;2024-02-15T07:19:19;10.8;;;8.2;;
61675;SDS011;47574;52.090;5.244;2024-02-15T07:20:55;13.2;;;8.9;;
61675;SDS011;47574;52.090;5.244;2024-02-15T07:22:31;11.4;;;9.21;;
61675;SDS011;47574;52.090;5.244;2024-02-15T07:25:43;13.4;;;9.0;;
61675;SDS011;47574;52.090;5.244;2024-02-15T07:27:20;9.1;;;8.31;;
61675;SDS011;47574;52.090;5.244;2024-02-15T07:28:56;12.5;;;9.5;;
61675;SDS011;47574;52.090;5.244;2024-02-15T07:32:08;11.0;;;9.6;;
61675;SDS011;47574;52.090;5.244;2024-02-15T07:33:44;10.7;;;8.9;;
61675;SDS011;47574;52.090;5.244;2024-02-15T07:35:20;13.5;;;10.3;;
61675;SDS011;47574;52.090;5.244;2024-02-15T07:36:56;13.5;;;10.3;;
61675;SDS011;47574;52.090;5.244;2024-02-15T07:40:09;12.0;;;9.4;;
61675;SDS011;47574;52.090;5.244;2024-02-15T07:41:45;10.7;;;8.71;;
61675;SDS011;47574;52.090;5.244;2024-02-15T07:43:21;14.8;;;10.21;;
61675;SDS011;47574;52.090;5.244;2024-02-15T07:46:37;16.4;;;10.8;;
61675;SDS011;47574;52.090;5.244;2024-02-15T07:48:13;9.5;;;8.6;;
61675;SDS011;47574;52.090;5.244;2024-02-15T07:49:49;12.8;;;10.6;;
61675;SDS011;47574;52.090;5.244;2024-02-15T07:53:01;15.0;;;11.5;;
61675;SDS011;47574;52.090;5.244;2024-02-15T07:54:37;13.1;;;8.81;;
61675;SDS011;47574;52.090;5.244;2024-02-15T07:56:17;10.7;;;8.81;;
61675;SDS011;47574;52.090;5.244;2024-02-15T07:57:53;8.0;;;7.2;;
61675;SDS011;47574;52.090;5.244;2024-02-15T08:01:06;12.3;;;9.4;;
61675;SDS011;47574;52.090;5.244;2024-02-15T08:02:42;9.71;;;8.4;;
61675;SDS011;47574;52.090;5.244;2024-02-15T08:04:19;8.1;;;6.8;;
61675;SDS011;47574;52.090;5.244;2024-02-15T08:07:31;8.2;;;7.4;;
61675;SDS011;47574;52.090;5.244;2024-02-15T08:09:07;10.0;;;7.6;;
61675;SDS011;47574;52.090;5.244;2024-02-15T08:10:43;9.31;;;8.4;;
61675;SDS011;47574;52.090;5.244;2024-02-15T08:13:55;9.81;;;8.81;;
61675;SDS011;47574;52.090;5.244;2024-02-15T08:15:32;10.6;;;9.5;;
61675;SDS011;47574;52.090;5.244;2024-02-15T08:17:08;9.0;;;8.1;;
61675;SDS011;47574;52.090;5.244;2024-02-15T08:18:45;12.4;;;8.5;;
61675;SDS011;47574;52.090;5.244;2024-02-15T08:21:57;10.6;;;7.6;;
61675;SDS011;47574;52.090;5.244;2024-02-15T08:23:38;8.6;;;7.2;;
61675;SDS011;47574;52.090;5.244;2024-02-15T08:25:14;7.6;;;6.7;;
61675;SDS011;47574;52.090;5.244;2024-02-15T08:28:26;9.71;;;8.1;;
61675;SDS011;47574;52.090;5.244;2024-02-15T08:30:03;9.5;;;7.4;;
61675;SDS011;47574;52.090;5.244;2024-02-15T08:31:40;7.9;;;6.8;;
61675;SDS011;47574;52.090;5.244;2024-02-15T08:34:53;8.6;;;6.3;;
61675;SDS011;47574;52.090;5.244;2024-02-15T08:36:29;7.5;;;5.7;;
61675;SDS011;47574;52.090;5.244;2024-02-15T08:38:05;6.3;;;5.7;;
61675;SDS011;47574;52.090;5.244;2024-02-15T08:39:41;6.6;;;5.6;;
61675;SDS011;47574;52.090;5.244;2024-02-15T08:42:53;7.8;;;5.4;;
61675;SDS011;47574;52.090;5.244;2024-02-15T08:44:29;7.0;;;5.7;;
61675;SDS011;47574;52.090;5.244;2024-02-15T08:46:05;5.5;;;4.8;;
61675;SDS011;47574;52.090;5.244;2024-02-15T08:49:19;6.4;;;5.2;;
61675;SDS011;47574;52.090;5.244;2024-02-15T08:50:55;5.0;;;4.5;;
61675;SDS011;47574;52.090;5.244;2024-02-15T08:52:34;7.1;;;5.11;;
61675;SDS011;47574;52.090;5.244;2024-02-15T08:55:47;8.31;;;4.91;;
61675;SDS011;47574;52.090;5.244;2024-02-15T08:57:23;8.0;;;4.8;;
61675;SDS011;47574;52.090;5.244;2024-02-15T08:58:59;7.9;;;4.91;;
61675;SDS011;47574;52.090;5.244;2024-02-15T09:00:35;8.6;;;6.3;;
61675;SDS011;47574;52.090;5.244;2024-02-15T09:03:51;7.8;;;5.3;;
61675;SDS011;47574;52.090;5.244;2024-02-15T09:05:27;5.6;;;4.5;;
61675;SDS011;47574;52.090;5.244;2024-02-15T09:07:03;9.6;;;7.2;;
61675;SDS011;47574;52.090;5.244;2024-02-15T09:10:15;8.9;;;6.1;;
61675;SDS011;47574;52.090;5.244;2024-02-15T09:11:52;7.0;;;5.5;;
61675;SDS011;47574;52.090;5.244;2024-02-15T09:13:28;9.81;;;8.71;;
61675;SDS011;47574;52.090;5.244;2024-02-15T09:16:41;8.4;;;6.4;;
61675;SDS011;47574;52.090;5.244;2024-02-15T09:18:17;9.31;;;5.2;;
61675;SDS011;47574;52.090;5.244;2024-02-15T09:21:30;7.4;;;4.7;;
61675;SDS011;47574;52.090;5.244;2024-02-15T09:24:42;7.5;;;4.61;;
61675;SDS011;47574;52.090;5.244;2024-02-15T09:26:18;6.6;;;4.61;;
61675;SDS011;47574;52.090;5.244;2024-02-15T09:27:54;11.8;;;5.3;;
61675;SDS011;47574;52.090;5.244;2024-02-15T09:31:06;6.0;;;4.3;;
61675;SDS011;47574;52.090;5.244;2024-02-15T09:32:43;8.81;;;4.5;;
61675;SDS011;47574;52.090;5.244;2024-02-15T09:34:19;8.81;;;4.61;;
61675;SDS011;47574;52.090;5.244;2024-02-15T09:37:32;5.9;;;4.0;;
61675;SDS011;47574;52.090;5.244;2024-02-15T09:39:08;7.0;;;4.0;;
61675;SDS011;47574;52.090;5.244;2024-02-15T09:40:44;7.7;;;3.7;;
61675;SDS011;47574;52.090;5.244;2024-02-15T09:44:00;5.2;;;3.5;;
61675;SDS011;47574;52.090;5.244;2024-02-15T09:45:36;8.0;;;4.0;;
61675;SDS011;47574;52.090;5.244;2024-02-15T09:47:12;8.6;;;3.9;;
61675;SDS011;47574;52.090;5.244;2024-02-15T09:48:55;8.31;;;3.7;;
61675;SDS011;47574;52.090;5.244;2024-02-15T09:52:11;9.6;;;4.1;;
61675;SDS011;47574;52.090;5.244;2024-02-15T09:53:47;9.6;;;4.1;;
61675;SDS011;47574;52.090;5.244;2024-02-15T09:55:23;7.2;;;4.0;;
61675;SDS011;47574;52.090;5.244;2024-02-15T09:58:38;10.3;;;4.3;;
61675;SDS011;47574;52.090;5.244;2024-02-15T10:00:17;7.3;;;4.0;;
61675;SDS011;47574;52.090;5.244;2024-02-15T10:01:54;5.9;;;3.8;;
61675;SDS011;47574;52.090;5.244;2024-02-15T10:03:34;7.7;;;3.7;;
61675;SDS011;47574;52.090;5.244;2024-02-15T10:06:49;8.9;;;3.8;;
61675;SDS011;47574;52.090;5.244;2024-02-15T10:08:26;8.0;;;4.1;;
61675;SDS011;47574;52.090;5.244;2024-02-15T10:10:13;7.1;;;4.2;;
61675;SDS011;47574;52.090;5.244;2024-02-15T10:11:53;8.1;;;4.2;;
61675;SDS011;47574;52.090;5.244;2024-02-15T10:15:06;8.9;;;4.5;;
61675;SDS011;47574;52.090;5.244;2024-02-15T10:16:43;7.9;;;4.41;;
61675;SDS011;47574;52.090;5.244;2024-02-15T10:18:19;8.6;;;5.0;;
61675;SDS011;47574;52.090;5.244;2024-02-15T10:21:41;9.21;;;4.61;;
61675;SDS011;47574;52.090;5.244;2024-02-15T10:23:17;7.8;;;4.1;;
61675;SDS011;47574;52.090;5.244;2024-02-15T10:24:53;9.0;;;4.0;;
61675;SDS011;47574;52.090;5.244;2024-02-15T10:26:46;10.4;;;4.2;;
61675;SDS011;47574;52.090;5.244;2024-02-15T10:30:04;8.2;;;3.9;;
61675;SDS011;47574;52.090;5.244;2024-02-15T10:31:52;7.3;;;4.0;;
61675;SDS011;47574;52.090;5.244;2024-02-15T10:33:29;8.4;;;4.0;;
61675;SDS011;47574;52.090;5.244;2024-02-15T10:35:06;8.5;;;3.7;;
61675;SDS011;47574;52.090;5.244;2024-02-15T10:38:19;8.5;;;3.7;;
61675;SDS011;47574;52.090;5.244;2024-02-15T10:40:04;10.7;;;4.2;;
61675;SDS011;47574;52.090;5.244;2024-02-15T10:41:41;10.6;;;4.3;;
61675;SDS011;47574;52.090;5.244;2024-02-15T10:43:18;12.5;;;4.1;;
61675;SDS011;47574;52.090;5.244;2024-02-15T10:46:33;8.1;;;3.9;;
61675;SDS011;47574;52.090;5.244;2024-02-15T10:48:09;9.81;;;3.8;;
61675;SDS011;47574;52.090;5.244;2024-02-15T10:49:45;8.31;;;3.7;;
61675;SDS011;47574;52.090;5.244;2024-02-15T10:53:00;10.5;;;4.91;;
61675;SDS011;47574;52.090;5.244;2024-02-15T10:54:56;12.6;;;4.1;;
61675;SDS011;47574;52.090;5.244;2024-02-15T10:56:41;13.2;;;4.8;;
61675;SDS011;47574;52.090;5.244;2024-02-15T10:58:19;10.0;;;3.9;;
61675;SDS011;47574;52.090;5.244;2024-02-15T10:59:58;11.0;;;4.61;;
61675;SDS011;47574;52.090;5.244;2024-02-15T11:03:14;8.2;;;4.3;;
61675;SDS011;47574;52.090;5.244;2024-02-15T11:05:01;11.1;;;4.91;;
61675;SDS011;47574;52.090;5.244;2024-02-15T11:06:42;10.0;;;5.11;;
61675;SDS011;47574;52.090;5.244;2024-02-15T11:08:18;12.1;;;6.1;;
61675;SDS011;47574;52.090;5.244;2024-02-15T11:11:32;11.1;;;5.9;;
61675;SDS011;47574;52.090;5.244;2024-02-15T11:13:08;9.81;;;5.2;;
61675;SDS011;47574;52.090;5.244;2024-02-15T11:14:45;9.31;;;5.0;;
61675;SDS011;47574;52.090;5.244;2024-02-15T11:18:41;9.4;;;4.61;;
61675;SDS011;47574;52.090;5.244;2024-02-15T11:20:56;9.9;;;5.4;;
61675;SDS011;47574;52.090;5.244;2024-02-15T11:22:32;11.7;;;5.4;;
61675;SDS011;47574;52.090;5.244;2024-02-15T11:24:24;12.4;;;5.2;;
61675;SDS011;47574;52.090;5.244;2024-02-15T11:26:01;11.6;;;5.9;;
61675;SDS011;47574;52.090;5.244;2024-02-15T11:27:37;9.81;;;5.9;;
61675;SDS011;47574;52.090;5.244;2024-02-15T11:30:15;9.0;;;5.2;;
61675;SDS011;47574;52.090;5.244;2024-02-15T11:32:07;9.0;;;5.2;;
61675;SDS011;47574;52.090;5.244;2024-02-15T11:33:43;11.0;;;6.6;;
61675;SDS011;47574;52.090;5.244;2024-02-15T11:36:57;9.1;;;6.0;;
61675;SDS011;47574;52.090;5.244;2024-02-15T11:38:33;9.71;;;6.5;;
61675;SDS011;47574;52.090;5.244;2024-02-15T11:40:10;11.4;;;6.9;;
61675;SDS011;47574;52.090;5.244;2024-02-15T11:41:53;11.8;;;7.1;;
61675;SDS011;47574;52.090;5.244;2024-02-15T11:44:01;11.3;;;6.7;;
61675;SDS011;47574;52.090;5.244;2024-02-15T11:47:16;10.21;;;7.1;;
61675;SDS011;47574;52.090;5.244;2024-02-15T11:48:54;10.1;;;7.0;;
61675;SDS011;47574;52.090;5.244;2024-02-15T11:50:33;10.6;;;6.9;;
61675;SDS011;47574;52.090;5.244;2024-02-15T11:52:10;10.21;;;6.7;;
61675;SDS011;47574;52.090;5.244;2024-02-15T11:55:33;13.1;;;7.0;;
61675;SDS011;47574;52.090;5.244;2024-02-15T11:57:09;8.81;;;6.6;;
61675;SDS011;47574;52.090;5.244;2024-02-15T11:59:00;14.1;;;7.5;;
61675;SDS011;47574;52.090;5.244;2024-02-15T12:00:37;9.81;;;6.9;;
61675;SDS011;47574;52.090;5.244;2024-02-15T12:03:52;12.6;;;7.3;;
61675;SDS011;47574;52.090;5.244;2024-02-15T12:05:28;10.4;;;6.5;;
61675;SDS011;47574;52.090;5.244;2024-02-15T12:07:04;10.3;;;7.1;;
61675;SDS011;47574;52.090;5.244;2024-02-15T12:10:20;10.6;;;6.6;;
61675;SDS011;47574;52.090;5.244;2024-02-15T12:11:57;11.0;;;7.0;;
61675;SDS011;47574;52.090;5.244;2024-02-15T12:13:34;11.0;;;6.5;;
61675;SDS011;47574;52.090;5.244;2024-02-15T12:18:21;13.9;;;9.4;;
61675;SDS011;47574;52.090;5.244;2024-02-15T12:19:59;18.2;;;11.5;;
61675;SDS011;47574;52.090;5.244;2024-02-15T12:21:36;11.6;;;7.7;;
61675;SDS011;47574;52.090;5.244;2024-02-15T12:24:53;12.6;;;8.9;;
61675;SDS011;47574;52.090;5.244;2024-02-15T12:26:30;13.3;;;7.3;;
61675;SDS011;47574;52.090;5.244;2024-02-15T12:28:07;7.6;;;6.0;;
61675;SDS011;47574;52.090;5.244;2024-02-15T12:31:19;7.6;;;6.3;;
61675;SDS011;47574;52.090;5.244;2024-02-15T12:34:45;11.5;;;6.9;;
61675;SDS011;47574;52.090;5.244;2024-02-15T12:36:21;12.2;;;7.1;;
61675;SDS011;47574;52.090;5.244;2024-02-15T12:39:38;9.0;;;4.91;;
61675;SDS011;47574;52.090;5.244;2024-02-15T12:41:18;12.3;;;9.81;;
61675;SDS011;47574;52.090;5.244;2024-02-15T12:42:55;10.9;;;8.0;;
61675;SDS011;47574;52.090;5.244;2024-02-15T12:44:31;10.6;;;6.1;;
61675;SDS011;47574;52.090;5.244;2024-02-15T12:47:44;9.1;;;6.0;;
61675;SDS011;47574;52.090;5.244;2024-02-15T12:49:27;9.0;;;5.7;;
61675;SDS011;47574;52.090;5.244;2024-02-15T12:51:12;8.71;;;4.5;;